Time;durP1;ratioP1;P1;durP2;ratioP2;P2;SDS_P1;SDS_P2;PMS_P1;PMS_P2;Temp;Humidity;BMP_temperature;BMP_pressure;BME280_temperature;BME280_humidity;BME280_pressure;Samples;Min_cycle;Max_cycle;Signal;HPM_P1;HPM_P2
2022/04/17 00:01:10;;;;;;;4.17;2.60;;;;;;;2.87;69.37;101199.48;1371479;89;23102;-82
2022/04/17 00:03:38;;;;;;;8.70;3.40;;;;;;;2.87;69.37;101196.03;1371353;90;21529;-81
2022/04/17 00:06:06;;;;;;;6.43;3.60;;;;;;;2.85;69.43;101194.83;1371366;90;21671;-82
2022/04/17 00:08:33;;;;;;;7.50;4.37;;;;;;;2.84;69.46;101200.12;1370625;89;21511;-82
2022/04/17 00:11:01;;;;;;;5.43;3.30;;;;;;;2.88;69.62;101193.83;1371246;89;21516;-81
2022/04/17 00:13:28;;;;;;;5.23;2.57;;;;;;;2.83;69.71;101190.59;1370796;90;21688;-82
2022/04/17 00:15:56;;;;;;;6.60;3.80;;;;;;;2.83;69.75;101195.83;1329236;92;21658;-83
2022/04/17 00:18:23;;;;;;;6.97;3.73;;;;;;;2.83;69.81;101198.44;1368472;89;21524;-81
2022/04/17 00:20:50;;;;;;;6.00;3.70;;;;;;;2.83;69.57;101195.83;1367823;90;22574;-81
2022/04/17 00:23:17;;;;;;;9.37;6.10;;;;;;;2.81;69.77;101192.44;1370656;90;22925;-81
2022/04/17 00:25:44;;;;;;;5.07;3.00;;;;;;;2.84;69.43;101198.81;1372198;89;22485;-81
2022/04/17 00:28:11;;;;;;;7.87;4.93;;;;;;;2.84;69.57;101196.20;1372046;89;22784;-81
2022/04/17 00:30:38;;;;;;;7.43;4.30;;;;;;;2.80;69.50;101193.37;1369455;90;21637;-81
2022/04/17 00:33:06;;;;;;;5.27;3.07;;;;;;;2.81;69.11;101197.66;1371489;90;22573;-81
2022/04/17 00:35:34;;;;;;;5.33;3.93;;;;;;;2.80;69.30;101190.76;1369186;89;21399;-81
2022/04/17 00:38:02;;;;;;;8.40;3.67;;;;;;;2.74;69.38;101191.91;1328072;93;21644;-81
2022/04/17 00:40:29;;;;;;;9.33;3.70;;;;;;;2.70;69.39;101188.63;1333752;92;21544;-81
2022/04/17 00:42:59;;;;;;;6.33;3.20;;;;;;;2.74;69.33;101191.08;1370279;89;21487;-81
2022/04/17 00:45:26;;;;;;;7.47;3.80;;;;;;;2.66;69.56;101175.31;1388145;87;21690;-81
2022/04/17 00:47:53;;;;;;;5.73;3.20;;;;;;;2.63;69.47;101184.61;1387513;88;21478;-82
2022/04/17 00:50:21;;;;;;;6.60;3.03;;;;;;;2.61;69.53;101176.00;1387579;88;21845;-81
2022/04/17 00:52:48;;;;;;;6.80;3.80;;;;;;;2.60;69.34;101183.94;1380718;89;21589;-82
2022/04/17 00:55:16;;;;;;;6.83;3.27;;;;;;;2.58;69.15;101170.92;1378440;89;21390;-82
2022/04/17 00:57:44;;;;;;;6.43;3.63;;;;;;;2.57;69.07;101169.25;1378452;89;21606;-81
2022/04/17 01:00:13;;;;;;;7.17;3.43;;;;;;;2.54;69.06;101168.10;1379052;89;21486;-83
2022/04/17 01:02:42;;;;;;;9.13;3.80;;;;;;;2.55;68.98;101159.80;1376057;89;21731;-81
2022/04/17 01:05:09;;;;;;;5.53;2.93;;;;;;;2.54;68.80;101159.42;1373840;90;21593;-82
2022/04/17 01:07:37;;;;;;;8.63;3.23;;;;;;;2.54;68.94;101161.57;1375465;90;21542;-82
2022/04/17 01:10:07;;;;;;;6.10;2.63;;;;;;;2.48;68.72;101157.50;1371049;89;21718;-82
2022/04/17 01:12:37;;;;;;;10.70;4.17;;;;;;;2.49;68.82;101159.64;1365505;90;21674;-82
2022/04/17 01:15:05;;;;;;;6.00;3.10;;;;;;;2.44;68.64;101156.41;1356841;91;21638;-83
2022/04/17 01:17:32;;;;;;;8.37;2.83;;;;;;;2.44;68.43;101154.64;1373809;90;22484;-82
2022/04/17 01:19:59;;;;;;;5.40;3.20;;;;;;;2.42;68.46;101154.36;1372894;90;22352;-82
2022/04/17 01:22:26;;;;;;;9.93;3.00;;;;;;;2.43;68.43;101150.81;1368101;90;21557;-82
2022/04/17 01:27:39;;;;;;;6.97;3.00;;;;;;;2.44;68.16;101148.57;1328665;93;22633;-82
2022/04/17 01:30:07;;;;;;;5.13;3.17;;;;;;;2.40;68.02;101150.97;1367511;90;21631;-82
2022/04/17 01:32:35;;;;;;;8.63;3.20;;;;;;;2.42;68.16;101150.44;1374261;90;21782;-82
2022/04/17 01:35:02;;;;;;;7.70;3.50;;;;;;;2.41;68.11;101147.42;1373556;89;22536;-82
2022/04/17 01:37:29;;;;;;;8.87;3.10;;;;;;;2.34;68.18;101153.43;1374047;90;21719;-83
2022/04/17 01:39:56;;;;;;;10.07;4.50;;;;;;;2.32;67.99;101158.34;1374169;89;22662;-83
2022/04/17 01:42:23;;;;;;;6.30;3.43;;;;;;;2.35;67.78;101163.41;1373427;89;21465;-83
2022/04/17 01:44:51;;;;;;;6.93;2.83;;;;;;;2.32;67.84;101160.48;1374218;90;21550;-81
2022/04/17 01:47:18;;;;;;;6.87;3.30;;;;;;;2.30;67.72;101162.33;1371772;89;21677;-81
2022/04/17 01:49:45;;;;;;;8.53;3.77;;;;;;;2.28;67.72;101154.20;1375747;88;21561;-80
2022/04/17 01:52:12;;;;;;;8.97;4.50;;;;;;;2.29;67.49;101153.27;1395378;88;22453;-81
2022/04/17 01:54:39;;;;;;;6.73;3.13;;;;;;;2.31;67.45;101151.44;1406264;87;21499;-81
2022/04/17 01:57:06;;;;;;;5.83;3.70;;;;;;;2.32;67.30;101154.42;1393534;86;21513;-81
2022/04/17 01:59:33;;;;;;;6.20;3.87;;;;;;;2.29;67.20;101150.66;1392812;86;21546;-82
2022/04/17 02:02:01;;;;;;;9.33;3.40;;;;;;;2.32;67.31;101147.89;1401935;88;21515;-81
2022/04/17 02:04:32;;;;;;;6.20;3.33;;;;;;;2.34;67.24;101146.06;1407098;86;21572;-82
2022/04/17 02:06:57;;;;;;;12.67;4.17;;;;;;;2.30;67.32;101145.81;1406668;87;22496;-82
2022/04/17 02:09:24;;;;;;;8.97;2.97;;;;;;;2.30;67.40;101147.95;1402741;87;21650;-82
2022/04/17 02:11:53;;;;;;;7.50;3.13;;;;;;;2.28;67.44;101141.14;1386021;88;21640;-81
2022/04/17 02:14:20;;;;;;;6.00;3.20;;;;;;;2.27;67.40;101146.80;1386439;88;21427;-81
2022/04/17 02:16:47;;;;;;;4.80;3.10;;;;;;;2.30;67.28;101139.28;1371722;90;21902;-82
2022/04/17 02:19:14;;;;;;;4.40;2.33;;;;;;;2.29;67.02;101142.36;1386054;88;21487;-82
2022/04/17 02:21:41;;;;;;;7.53;3.37;;;;;;;2.33;67.04;101146.95;1386184;88;21713;-81
2022/04/17 02:24:08;;;;;;;5.73;2.57;;;;;;;2.33;66.98;101143.04;1372655;90;21683;-82
2022/04/17 02:26:35;;;;;;;3.73;2.40;;;;;;;2.36;66.64;101139.84;1386191;89;21607;-81
2022/04/17 02:29:04;;;;;;;7.10;2.87;;;;;;;2.42;66.31;101141.30;1386358;88;21578;-81
2022/04/17 02:31:31;;;;;;;7.37;2.93;;;;;;;2.44;66.38;101135.51;1386235;89;21743;-81
2022/04/17 02:33:59;;;;;;;5.70;2.83;;;;;;;2.43;66.42;101144.28;1386291;88;22795;-81
2022/04/17 02:36:27;;;;;;;5.90;3.23;;;;;;;2.48;66.18;101147.52;1386071;88;23140;-81
2022/04/17 02:38:54;;;;;;;6.97;3.23;;;;;;;2.52;66.10;101142.50;1386278;88;21536;-81
2022/04/17 02:41:22;;;;;;;8.87;3.07;;;;;;;2.52;65.86;101139.89;1387766;89;21576;-81
2022/04/17 02:43:49;;;;;;;6.30;2.93;;;;;;;2.49;65.92;101140.88;1386148;89;21520;-81
2022/04/17 02:49:02;;;;;;;6.33;3.47;;;;;;;2.51;65.54;101135.59;1385861;88;21588;-81
2022/04/17 02:51:29;;;;;;;6.10;2.80;;;;;;;2.58;65.07;101125.19;1391247;88;21722;-82
2022/04/17 02:53:57;;;;;;;7.07;3.47;;;;;;;2.61;65.10;101134.18;1407086;86;21459;-81
2022/04/17 02:56:23;;;;;;;8.07;3.53;;;;;;;2.62;64.99;101128.52;1407136;86;21583;-82
2022/04/17 02:58:54;;;;;;;4.57;2.93;;;;;;;2.60;65.30;101127.28;1406889;86;21439;-83
2022/04/17 03:06:55;;;;;;;5.57;2.90;;;;;;;2.51;65.27;101139.52;1390659;86;21503;-81
2022/04/17 03:09:22;;;;;;;5.90;3.17;;;;;;;2.56;65.31;101141.44;1386139;89;22364;-81
2022/04/17 03:11:49;;;;;;;5.87;3.00;;;;;;;2.55;65.33;101139.73;1386454;88;21581;-81
2022/04/17 03:14:16;;;;;;;6.63;3.90;;;;;;;2.54;65.21;101141.97;1386125;89;21523;-81
2022/04/17 03:16:43;;;;;;;5.77;3.37;;;;;;;2.57;65.21;101144.42;1388662;89;21491;-81
2022/04/17 03:19:11;;;;;;;6.47;3.30;;;;;;;2.52;65.32;101152.11;1393636;88;21775;-82
2022/04/17 03:21:38;;;;;;;6.33;3.30;;;;;;;2.44;65.34;101149.88;1393225;88;21528;-82
2022/04/17 03:24:05;;;;;;;5.00;3.20;;;;;;;2.47;65.38;101145.37;1393478;87;21767;-81
2022/04/17 03:26:33;;;;;;;6.23;3.50;;;;;;;2.44;65.12;101144.66;1393026;87;21506;-81
2022/04/17 03:29:00;;;;;;;6.90;2.90;;;;;;;2.46;65.45;101144.12;1390094;87;21575;-81
2022/04/17 03:31:27;;;;;;;7.80;3.17;;;;;;;2.46;65.56;101144.12;1386328;89;21547;-81
2022/04/17 03:33:54;;;;;;;6.00;3.40;;;;;;;2.44;65.58;101143.34;1386004;89;21494;-82
2022/04/17 03:36:21;;;;;;;4.50;2.87;;;;;;;2.45;65.39;101148.98;1386925;88;21448;-82
2022/04/17 03:38:48;;;;;;;8.07;4.30;;;;;;;2.40;65.46;101147.05;1386200;89;21403;-82
2022/04/17 03:41:15;;;;;;;7.53;3.07;;;;;;;2.40;65.57;101144.44;1386569;88;21531;-82
2022/04/17 03:43:43;;;;;;;5.03;3.57;;;;;;;2.36;65.77;101150.72;1386523;89;21680;-82
2022/04/17 03:46:10;;;;;;;6.33;4.10;;;;;;;2.33;65.66;101154.80;1406985;87;21579;-81
2022/04/17 03:48:37;;;;;;;6.20;3.33;;;;;;;2.35;65.95;101152.96;1406993;86;21622;-80
2022/04/17 03:51:04;;;;;;;6.53;3.67;;;;;;;2.32;65.88;101148.73;1394651;86;21740;-81
2022/04/17 03:53:31;;;;;;;6.90;3.00;;;;;;;2.29;66.45;101149.36;1375507;89;22509;-81
2022/04/17 03:55:58;;;;;;;9.47;3.90;;;;;;;2.23;66.60;101149.20;1372626;89;21594;-81
2022/04/17 03:58:25;;;;;;;7.53;3.57;;;;;;;2.21;66.66;101154.95;1329761;93;21585;-81
2022/04/17 04:00:52;;;;;;;8.17;3.57;;;;;;;2.20;66.73;101158.50;1367939;90;21422;-82
2022/04/17 04:03:19;;;;;;;6.70;3.20;;;;;;;2.23;66.57;101160.48;1368310;90;21340;-81
2022/04/17 04:05:46;;;;;;;6.23;3.47;;;;;;;2.29;66.54;101159.80;1329886;93;22634;-81
2022/04/17 04:08:13;;;;;;;7.30;3.77;;;;;;;2.24;66.32;101158.28;1369333;89;22446;-82
2022/04/17 04:10:40;;;;;;;5.63;3.13;;;;;;;2.31;66.06;101161.89;1343095;93;22636;-81
2022/04/17 04:13:07;;;;;;;5.00;2.87;;;;;;;2.35;66.07;101158.19;1350679;90;21567;-81
2022/04/17 04:15:34;;;;;;;7.03;3.40;;;;;;;2.33;65.55;101152.19;1348433;91;21468;-82
2022/04/17 04:18:01;;;;;;;5.93;3.67;;;;;;;2.37;66.00;101149.82;1337587;91;21573;-82
2022/04/17 04:20:28;;;;;;;8.60;4.23;;;;;;;2.35;65.95;101162.95;1375586;87;21495;-82
2022/04/17 04:22:57;;;;;;;7.47;4.03;;;;;;;2.33;66.19;101157.41;1364014;90;21513;-81
2022/04/17 04:25:24;;;;;;;10.00;4.50;;;;;;;2.42;66.49;101156.97;1369303;90;22337;-81
2022/04/17 04:30:36;;;;;;;11.53;4.60;;;;;;;2.48;66.20;101159.27;1368824;89;22548;-82
2022/04/17 04:33:03;;;;;;;8.33;4.23;;;;;;;2.54;65.66;101160.27;1374999;90;21513;-81
2022/04/17 04:35:30;;;;;;;9.37;3.70;;;;;;;2.64;65.72;101154.93;1375594;90;21471;-82
2022/04/17 04:38:00;;;;;;;8.30;3.60;;;;;;;2.71;65.53;101150.25;1375553;89;21621;-82
2022/04/17 04:40:30;;;;;;;9.87;4.17;;;;;;;2.77;65.42;101151.70;1375623;90;22427;-81
2022/04/17 04:43:00;;;;;;;10.43;4.63;;;;;;;2.78;65.31;101150.30;1375073;90;21738;-81
2022/04/17 04:48:14;;;;;;;8.20;3.73;;;;;;;2.84;64.74;101147.83;1355308;91;21272;-82
2022/04/17 04:50:41;;;;;;;5.23;3.10;;;;;;;2.90;64.66;101143.11;1378744;88;22627;-83
2022/04/17 04:53:09;;;;;;;5.93;4.00;;;;;;;2.95;64.33;101138.96;1393230;88;21655;-82
2022/04/17 04:55:36;;;;;;;6.53;3.77;;;;;;;3.05;63.66;101143.23;1393529;87;21742;-82
2022/04/17 04:58:04;;;;;;;6.93;3.87;;;;;;;3.10;63.68;101145.98;1402101;87;21587;-81
2022/04/17 05:00:31;;;;;;;5.20;3.57;;;;;;;3.21;63.57;101144.10;1407162;86;21534;-82
2022/04/17 05:02:58;;;;;;;6.37;3.63;;;;;;;3.30;63.20;101151.92;1407597;86;21504;-81
2022/04/17 05:05:26;;;;;;;5.23;2.70;;;;;;;3.44;63.29;101151.17;1406453;86;21526;-81
2022/04/17 05:07:53;;;;;;;5.70;3.90;;;;;;;3.51;61.96;101157.30;1406999;86;21578;-81
2022/04/17 05:10:20;;;;;;;5.47;3.77;;;;;;;3.65;62.45;101159.60;1401954;86;21580;-81
2022/04/17 05:12:47;;;;;;;4.77;2.93;;;;;;;3.77;62.47;101153.67;1386076;89;21604;-81
2022/04/17 05:15:15;;;;;;;5.77;3.00;;;;;;;3.91;61.70;101155.52;1385971;88;21745;-80
2022/04/17 05:17:42;;;;;;;5.53;2.93;;;;;;;3.91;61.70;101155.52;1390472;89;21709;-81
2022/04/17 05:20:10;;;;;;;14.33;3.20;;;;;;;3.99;61.66;101162.48;1386933;88;21667;-80
2022/04/17 05:22:37;;;;;;;5.27;2.80;;;;;;;4.07;60.86;101165.04;1386204;89;21795;-81
2022/04/17 05:25:05;;;;;;;5.73;3.43;;;;;;;4.18;61.17;101163.13;1406846;86;21854;-81
2022/04/17 05:27:33;;;;;;;4.93;3.33;;;;;;;4.38;60.55;101154.11;1406838;86;21744;-81
2022/04/17 05:30:00;;;;;;;5.90;3.60;;;;;;;4.38;60.55;101154.11;1406974;87;23048;-82
2022/04/17 05:32:27;;;;;;;5.23;2.80;;;;;;;4.40;59.44;101160.11;1393281;87;21888;-81
2022/04/17 05:34:54;;;;;;;4.57;2.77;;;;;;;4.50;58.42;101132.41;1406878;87;22900;-82
2022/04/17 05:37:21;;;;;;;5.23;2.90;;;;;;;4.50;58.42;101132.41;1405530;86;22086;-81
2022/04/17 05:39:49;;;;;;;8.30;2.80;;;;;;;4.54;58.35;101131.74;1406698;86;21947;-81
2022/04/17 05:42:16;;;;;;;4.80;2.67;;;;;;;4.62;57.93;101140.47;1406972;87;21999;-81
2022/04/17 05:44:43;;;;;;;5.80;2.80;;;;;;;4.76;59.05;101136.55;1406808;87;21992;-81
2022/04/17 05:47:10;;;;;;;4.57;2.67;;;;;;;4.79;58.06;101131.12;1406273;86;21976;-83
2022/04/17 05:49:37;;;;;;;4.30;2.40;;;;;;;4.85;57.86;101129.43;1388162;86;23123;-81
2022/04/17 05:52:05;;;;;;;6.47;3.33;;;;;;;4.91;57.35;101126.42;1386878;89;22140;-81
2022/04/17 05:54:33;;;;;;;6.17;3.23;;;;;;;4.97;57.71;101118.17;1386755;88;22976;-81
2022/04/17 05:57:01;;;;;;;3.60;2.70;;;;;;;5.04;56.50;101129.63;1386073;88;21941;-80
2022/04/17 05:59:29;;;;;;;3.43;2.37;;;;;;;5.10;56.85;101128.77;1386584;88;21992;-81
2022/04/17 06:01:56;;;;;;;13.70;3.87;;;;;;;5.27;57.30;101120.33;1386147;88;22036;-82
2022/04/17 06:04:23;;;;;;;5.10;2.87;;;;;;;5.45;57.17;101118.31;1385957;89;22918;-81
2022/04/17 06:06:51;;;;;;;6.07;2.10;;;;;;;5.61;56.71;101120.30;1389217;88;21933;-82
2022/04/17 06:09:18;;;;;;;6.17;2.70;;;;;;;5.86;54.81;101113.84;1390046;88;22044;-82
2022/04/17 06:11:45;;;;;;;13.97;3.10;;;;;;;5.86;54.81;101113.84;1393527;87;21390;-81
2022/04/17 06:14:12;;;;;;;4.87;2.83;;;;;;;5.98;54.62;101125.36;1406452;87;21342;-81
2022/04/17 06:16:40;;;;;;;5.60;2.70;;;;;;;5.86;53.48;101116.47;1403572;86;21300;-81
2022/04/17 06:19:09;;;;;;;4.40;1.83;;;;;;;6.06;53.94;101118.29;1401156;86;21323;-81
2022/04/17 06:21:37;;;;;;;7.77;2.30;;;;;;;6.04;52.29;101126.30;1386113;88;21228;-80
2022/04/17 06:24:05;;;;;;;3.40;1.97;;;;;;;6.15;53.17;101129.50;1386151;88;21317;-80
2022/04/17 06:26:33;;;;;;;6.00;2.47;;;;;;;6.10;52.96;101131.14;1387628;88;22587;-80
2022/04/17 06:29:05;;;;;;;3.97;2.07;;;;;;;6.20;53.12;101143.19;1385988;88;21368;-80
2022/04/17 06:31:30;;;;;;;5.20;1.93;;;;;;;6.01;52.94;101133.52;1385962;89;21524;-80
2022/04/17 06:33:57;;;;;;;5.73;2.50;;;;;;;6.05;52.96;101132.38;1386057;88;21479;-80
2022/04/17 06:36:24;;;;;;;9.37;3.43;;;;;;;6.16;53.12;101135.59;1386234;88;21405;-79
2022/04/17 06:38:51;;;;;;;16.70;2.70;;;;;;;6.15;52.70;101143.95;1394636;87;21248;-80
2022/04/17 06:41:19;;;;;;;3.10;1.57;;;;;;;6.35;52.98;101140.00;1406813;86;21300;-80
2022/04/17 06:43:46;;;;;;;4.63;2.13;;;;;;;6.41;50.82;101142.69;1407047;87;22409;-78
2022/04/17 06:46:13;;;;;;;6.07;2.00;;;;;;;6.70;51.73;101137.63;1401457;86;22195;-78
2022/04/17 06:48:40;;;;;;;6.37;2.30;;;;;;;6.88;50.60;101137.31;1389688;87;22248;-79
2022/04/17 06:51:07;;;;;;;7.60;2.70;;;;;;;7.07;51.16;101136.38;1386195;88;22344;-79
2022/04/17 06:53:37;;;;;;;5.67;2.40;;;;;;;7.22;50.71;101139.26;1386250;88;22241;-79
2022/04/17 06:56:05;;;;;;;2.67;1.50;;;;;;;7.34;50.33;101140.66;1385983;88;21585;-80
2022/04/17 06:58:32;;;;;;;9.43;2.43;;;;;;;7.16;48.44;101138.37;1378890;88;21524;-79
2022/04/17 07:00:59;;;;;;;4.47;2.53;;;;;;;7.23;49.71;101137.47;1374839;90;21431;-79
2022/04/17 07:03:26;;;;;;;3.87;1.80;;;;;;;7.19;48.74;101131.58;1374580;90;21420;-79
2022/04/17 07:05:53;;;;;;;2.57;1.63;;;;;;;7.06;48.39;101137.81;1354665;91;21333;-80
2022/04/17 07:08:20;;;;;;;7.80;3.07;;;;;;;7.05;48.59;101122.50;1357527;91;21325;-80
2022/04/17 07:10:48;;;;;;;2.20;1.53;;;;;;;7.38;49.54;101123.19;1368996;89;21347;-79
2022/04/17 07:13:15;;;;;;;6.60;2.23;;;;;;;7.27;48.33;101126.23;1385798;89;21487;-79
2022/04/17 07:15:42;;;;;;;6.40;2.10;;;;;;;7.29;49.31;101133.55;1385600;88;21523;-79
2022/04/17 07:18:09;;;;;;;4.40;2.33;;;;;;;7.55;49.50;101135.16;1358014;89;21338;-79
2022/04/17 07:20:37;;;;;;;3.80;2.20;;;;;;;7.54;48.29;101132.17;1311078;93;21582;-80
2022/04/17 07:23:06;;;;;;;6.40;2.30;;;;;;;7.54;48.15;101130.84;1374293;90;21450;-79
2022/04/17 07:25:33;;;;;;;5.27;2.23;;;;;;;7.68;48.68;101122.78;1374831;90;21524;-79
2022/04/17 07:28:01;;;;;;;2.67;1.67;;;;;;;7.76;47.62;101126.64;1374351;90;21354;-80
2022/04/17 07:30:33;;;;;;;2.50;1.70;;;;;;;7.82;47.01;101134.09;1368221;90;21288;-78
2022/04/17 07:33:01;;;;;;;5.37;1.70;;;;;;;8.04;46.80;101126.28;1370584;91;22159;-81
2022/04/17 07:35:30;;;;;;;4.87;2.33;;;;;;;8.25;46.61;101131.73;1351687;92;21376;-81
2022/04/17 07:38:02;;;;;;;7.57;2.50;;;;;;;8.46;45.64;101129.33;1358319;90;21453;-81
2022/04/17 07:40:35;;;;;;;4.83;2.07;;;;;;;8.52;44.20;101128.86;1382749;89;21494;-81
2022/04/17 07:43:04;;;;;;;6.33;1.87;;;;;;;8.62;45.13;101122.39;1375115;89;21432;-80
2022/04/17 07:45:33;;;;;;;4.83;1.80;;;;;;;8.72;43.73;101131.78;1360479;89;21240;-81
2022/04/17 07:48:01;;;;;;;4.70;1.87;;;;;;;8.85;45.07;101120.61;1356743;91;21274;-79
2022/04/17 07:50:31;;;;;;;7.37;1.70;;;;;;;8.88;45.43;101130.09;1359715;90;21227;-80
2022/04/17 07:52:59;;;;;;;5.60;1.90;;;;;;;9.04;43.97;101122.17;1356784;91;22379;-79
2022/04/17 07:55:27;;;;;;;2.83;2.07;;;;;;;9.30;44.68;101121.08;1370920;88;21289;-80
2022/04/17 08:00:57;;;;;;;7.63;1.77;;;;;;;9.79;42.77;101120.59;1377874;88;22206;-87
2022/04/17 08:05:54;;;;;;;2.60;1.70;;;;;;;9.17;43.03;101113.27;1334907;91;21599;-87
2022/04/17 08:08:21;;;;;;;6.37;1.97;;;;;;;8.92;43.30;101109.95;1384766;89;21416;-87
2022/04/17 08:10:48;;;;;;;8.17;2.10;;;;;;;9.22;43.79;101109.80;1389827;88;21368;-87
2022/04/17 08:13:17;;;;;;;5.70;2.07;;;;;;;9.38;42.63;101111.58;1403060;87;22285;-87
2022/04/17 08:15:45;;;;;;;8.90;1.90;;;;;;;9.64;42.83;101100.70;1390087;87;21318;-87
2022/04/17 08:18:13;;;;;;;7.83;2.20;;;;;;;9.56;41.53;101097.84;1376393;89;21267;-87
2022/04/17 08:20:40;;;;;;;4.63;2.43;;;;;;;10.05;43.03;101105.70;1389383;89;22247;-88
2022/04/17 08:23:08;;;;;;;4.97;1.40;;;;;;;10.35;40.78;101124.31;1389640;86;22253;-87
2022/04/17 08:25:36;;;;;;;12.40;1.53;;;;;;;10.40;39.92;101110.70;1386073;87;22286;-87
2022/04/17 08:28:04;;;;;;;4.33;1.60;;;;;;;10.47;39.73;101109.70;1381140;88;21382;-88
2022/04/17 08:30:33;;;;;;;6.17;2.00;;;;;;;10.68;39.44;101107.05;1376356;89;21420;-88
2022/04/17 08:33:03;;;;;;;3.80;1.70;;;;;;;11.00;41.15;101093.17;1388060;89;21389;-88
2022/04/17 08:35:30;;;;;;;2.05;1.22;;;;;;;9.97;41.44;101102.86;1380881;87;21441;-86
2022/04/17 08:38:00;;;;;;;3.80;1.37;;;;;;;10.44;42.60;101103.34;1376129;89;21235;-86
2022/04/17 08:40:28;;;;;;;4.17;1.87;;;;;;;9.90;41.55;101086.18;1376891;89;21235;-86
2022/04/17 08:42:57;;;;;;;3.90;2.03;;;;;;;10.01;43.29;101098.98;1379562;90;21264;-88
2022/04/17 08:45:25;;;;;;;5.13;1.80;;;;;;;10.08;42.30;101097.02;1397221;87;22138;-87
2022/04/17 08:47:53;;;;;;;3.43;1.37;;;;;;;10.40;43.43;101097.48;1396264;87;22327;-87
2022/04/17 08:50:21;;;;;;;5.30;1.37;;;;;;;10.68;42.84;101089.84;1402891;87;22261;-86
2022/04/17 08:52:53;;;;;;;1.63;1.13;;;;;;;10.45;39.92;101085.19;1377067;87;21319;-87
2022/04/17 08:55:20;;;;;;;3.30;1.70;;;;;;;10.29;39.49;101087.80;1378329;88;21546;-87
2022/04/17 08:57:48;;;;;;;2.07;1.40;;;;;;;10.01;40.09;101089.72;1374387;89;21305;-88
2022/04/17 09:00:17;;;;;;;2.00;1.53;;;;;;;10.17;39.03;101079.55;1390875;88;21309;-87
2022/04/17 09:02:47;;;;;;;7.27;2.00;;;;;;;10.25;37.90;101085.03;1388203;88;21287;-87
2022/04/17 09:05:20;;;;;;;4.77;1.03;;;;;;;10.51;37.34;101080.69;1384358;89;21324;-87
2022/04/17 09:07:53;;;;;;;6.57;1.57;;;;;;;10.64;36.48;101081.30;1383799;89;21324;-87
2022/04/17 09:10:31;;;;;;;2.40;1.13;;;;;;;10.27;35.91;101080.49;1384042;89;21536;-87
2022/04/17 09:13:03;;;;;;;2.27;1.03;;;;;;;9.64;37.29;101078.24;1383388;89;21341;-89
2022/04/17 09:15:34;;;;;;;2.10;1.20;;;;;;;9.98;37.81;101077.59;1387241;89;22115;-87
2022/04/17 09:18:08;;;;;;;4.57;1.77;;;;;;;9.86;37.94;101083.41;1389731;88;21271;-87
2022/04/17 09:20:35;;;;;;;2.90;1.23;;;;;;;10.10;37.28;101085.02;1390168;88;21383;-87
2022/04/17 09:23:02;;;;;;;4.50;0.83;;;;;;;10.14;37.61;101075.84;1394731;88;21349;-88
2022/04/17 09:25:30;;;;;;;3.20;1.67;;;;;;;10.32;37.03;101071.66;1407010;87;21176;-90
2022/04/17 09:28:07;;;;;;;3.97;1.23;;;;;;;10.85;38.56;101064.06;1385466;86;21294;-91
2022/04/17 09:30:46;;;;;;;4.37;1.17;;;;;;;11.38;36.70;101058.95;1381535;89;21460;-88
2022/04/17 09:33:17;;;;;;;6.23;1.10;;;;;;;10.63;33.14;101066.40;1397993;87;22150;-89
2022/04/17 09:35:55;;;;;;;1.98;1.30;;;;;;;10.45;35.20;101072.79;1389789;88;21331;-90
2022/04/17 09:38:28;;;;;;;2.27;1.00;;;;;;;10.53;36.63;101059.75;1386826;89;22190;-88
2022/04/17 09:41:14;;;;;;;5.70;1.07;;;;;;;10.84;35.75;101065.84;1383760;90;21405;-92
2022/04/17 09:43:43;;;;;;;1.03;0.93;;;;;;;10.74;35.04;101062.34;1344663;91;22303;-89
2022/04/17 09:46:11;;;;;;;5.57;1.10;;;;;;;10.26;36.06;101068.18;1382005;88;21407;-89
2022/04/17 09:48:42;;;;;;;2.43;0.67;;;;;;;10.37;36.22;101065.50;1393607;88;21403;-90
2022/04/17 09:51:26;;;;;;;5.00;0.90;;;;;;;10.36;36.30;101064.32;1393571;88;21348;-92
2022/04/17 09:54:05;;;;;;;3.63;1.53;;;;;;;10.46;35.29;101061.72;1397332;88;21367;-90
2022/04/17 09:56:43;;;;;;;9.40;7.63;;;;;;;10.24;34.70;101052.95;1397432;88;21412;-88
2022/04/17 09:59:19;;;;;;;12.63;8.60;;;;;;;10.13;35.31;101057.81;1390767;88;21420;-89
2022/04/17 10:01:50;;;;;;;36.53;22.10;;;;;;;10.63;36.17;101045.71;1349185;91;21267;-90
2022/04/17 10:04:19;;;;;;;33.60;20.48;;;;;;;11.39;34.09;101048.20;1339844;93;22743;-90
2022/04/17 10:06:52;;;;;;;28.23;18.20;;;;;;;11.78;33.92;101042.09;1366155;92;21385;-90
2022/04/17 10:09:20;;;;;;;12.07;8.97;;;;;;;12.25;34.11;101031.58;1349292;93;22198;-90
2022/04/17 10:11:51;;;;;;;6.37;5.53;;;;;;;12.64;33.96;101020.34;1337882;93;21324;-90
2022/04/17 10:14:25;;;;;;;2.70;1.80;;;;;;;12.58;32.63;101031.05;1344694;93;21341;-89
2022/04/17 10:16:57;;;;;;;1.97;1.07;;;;;;;12.38;32.21;101042.73;1331527;93;22368;-87
2022/04/17 10:19:27;;;;;;;5.60;2.73;;;;;;;11.59;30.92;101037.13;1365061;90;21409;-90
2022/04/17 10:22:00;;;;;;;3.00;1.23;;;;;;;11.38;32.72;101039.08;1372103;90;21244;-90
2022/04/17 10:24:28;;;;;;;10.87;6.23;;;;;;;11.14;32.06;101035.50;1366964;90;21215;-88
2022/04/17 10:26:56;;;;;;;4.30;1.80;;;;;;;11.35;33.67;101028.76;1366596;90;21356;-91
2022/04/17 10:29:34;;;;;;;15.53;5.67;;;;;;;11.90;33.97;101020.61;1353161;91;21529;-90
2022/04/17 10:32:29;;;;;;;10.23;4.03;;;;;;;12.30;33.75;101020.88;1370217;90;22523;-89
2022/04/17 10:35:28;;;;;;;8.97;4.00;;;;;;;12.33;33.41;101027.72;1380555;91;22293;-86
2022/04/17 10:38:28;;;;;;;4.20;1.00;;;;;;;12.32;32.63;101025.56;1367379;88;22293;-89
2022/04/17 10:41:06;;;;;;;2.25;0.82;;;;;;;11.72;31.18;101015.16;1349835;90;22952;-85
2022/04/17 10:43:50;;;;;;;3.40;1.93;;;;;;;11.25;31.03;101008.88;1366883;90;21495;-88
2022/04/17 10:46:23;;;;;;;7.43;5.97;;;;;;;11.54;33.09;101016.84;1354646;91;21408;-86
2022/04/17 10:49:00;;;;;;;3.07;2.10;;;;;;;11.94;33.47;101005.27;1367220;90;21259;-88
2022/04/17 10:51:32;;;;;;;5.47;1.57;;;;;;;12.04;31.53;101011.38;1356289;91;21330;-89
2022/04/17 10:54:10;;;;;;;9.00;3.50;;;;;;;11.96;30.76;100996.66;1364545;90;21454;-89
2022/04/17 10:56:40;;;;;;;5.57;3.33;;;;;;;11.96;31.17;100999.31;1360572;90;22427;-88
2022/04/17 10:59:18;;;;;;;3.25;0.90;;;;;;;12.05;30.70;100989.66;1355569;91;21516;-88
2022/04/17 11:01:57;;;;;;;7.83;2.70;;;;;;;12.24;30.66;100978.16;1355671;90;21517;-88
2022/04/17 11:05:12;;;;;;;;;;;;;;;;;;;;;
2022/04/17 11:07:29;;;;;;;8.27;5.10;;;;;;;12.65;31.19;100979.02;1340085;91;22398;-91
2022/04/17 11:10:25;;;;;;;8.13;1.63;;;;;;;12.63;30.58;100973.53;1348913;91;21363;-92
2022/04/17 11:12:58;;;;;;;1.43;0.80;;;;;;;12.75;30.46;100964.38;1325809;93;21399;-93
2022/04/17 11:15:28;;;;;;;8.97;1.50;;;;;;;12.67;28.31;100975.40;1349338;92;21377;-92
2022/04/17 11:17:59;;;;;;;2.40;1.00;;;;;;;12.42;30.19;100958.66;1332985;93;21347;-91
2022/04/17 11:20:28;;;;;;;2.13;1.17;;;;;;;12.68;31.46;100957.14;1334303;93;21408;-93
2022/04/17 11:22:55;;;;;;;5.77;0.93;;;;;;;12.84;30.05;100958.66;1336112;93;21347;-95
2022/04/17 11:25:27;;;;;;;2.63;1.30;;;;;;;12.99;30.42;100949.68;1350339;91;21341;-92
2022/04/17 11:27:54;;;;;;;6.07;1.33;;;;;;;12.82;28.92;100946.84;1351149;92;21324;-89
2022/04/17 11:30:33;;;;;;;9.27;2.67;;;;;;;12.79;29.13;100951.63;1368381;89;21406;-92
2022/04/17 11:33:03;;;;;;;4.03;1.70;;;;;;;12.90;29.27;100943.45;1359595;90;21504;-91
2022/04/17 11:36:41;;;;;;;11.78;1.12;;;;;;;12.54;28.17;100946.02;1386328;88;21258;-90
2022/04/17 11:43:16;;;;;;;6.07;1.70;;;;;;;13.12;30.96;100941.33;1321870;94;21554;-92
2022/04/17 11:45:46;;;;;;;8.03;1.97;;;;;;;13.84;29.57;100936.31;1320764;94;21380;-93
2022/04/17 11:48:17;;;;;;;10.03;6.00;;;;;;;13.94;27.83;100936.20;1322081;92;21424;-96
2022/04/17 11:50:52;;;;;;;;;;;;;;;14.18;28.85;100928.83;1326019;94;21564;-94
2022/04/17 11:53:19;;;;;;;4.70;1.23;;;;;;;14.04;26.89;100921.44;1322175;93;20759;-94
2022/04/17 11:55:46;;;;;;;3.30;1.27;;;;;;;13.53;27.57;100923.95;1320455;94;21326;-92
2022/04/17 11:58:28;;;;;;;7.53;3.37;;;;;;;12.65;27.50;100915.28;1321093;94;21399;-94
2022/04/17 12:01:03;;;;;;;12.10;6.80;;;;;;;12.79;29.28;100925.89;1323539;92;21376;-96
2022/04/17 12:03:45;;;;;;;10.83;2.60;;;;;;;12.82;29.59;100915.47;1320056;94;21303;-94
2022/04/17 12:06:14;;;;;;;4.20;1.10;;;;;;;13.25;29.79;100923.19;1324101;94;21470;-92
2022/04/17 12:08:42;;;;;;;1.03;0.77;;;;;;;13.52;25.81;100920.47;1306134;95;21528;-90